sensor_id;sensor_type;location;lat;lon;timestamp;temperature;humidity
80779;SHT30;70170;47.856;10.956;2023-11-21T00:01:44;4.71;96.10
80779;SHT30;70170;47.856;10.956;2023-11-21T00:04:09;4.81;95.72
80779;SHT30;70170;47.856;10.956;2023-11-21T00:06:34;4.87;95.75
80779;SHT30;70170;47.856;10.956;2023-11-21T00:08:59;4.96;95.57
80779;SHT30;70170;47.856;10.956;2023-11-21T00:11:25;5.18;94.41
80779;SHT30;70170;47.856;10.956;2023-11-21T00:13:51;5.15;94.30
80779;SHT30;70170;47.856;10.956;2023-11-21T00:16:16;5.26;93.62
80779;SHT30;70170;47.856;10.956;2023-11-21T00:18:41;5.22;94.16
80779;SHT30;70170;47.856;10.956;2023-11-21T00:21:08;5.15;94.68
80779;SHT30;70170;47.856;10.956;2023-11-21T00:23:34;5.09;94.69
80779;SHT30;70170;47.856;10.956;2023-11-21T00:25:59;5.05;95.01
80779;SHT30;70170;47.856;10.956;2023-11-21T00:28:26;4.96;96.68
80779;SHT30;70170;47.856;10.956;2023-11-21T00:30:51;4.87;96.93
80779;SHT30;70170;47.856;10.956;2023-11-21T00:33:16;4.75;97.40
80779;SHT30;70170;47.856;10.956;2023-11-21T00:35:42;4.58;98.55
80779;SHT30;70170;47.856;10.956;2023-11-21T00:38:07;4.46;99.03
80779;SHT30;70170;47.856;10.956;2023-11-21T00:40:33;4.42;98.89
80779;SHT30;70170;47.856;10.956;2023-11-21T00:42:59;4.47;97.99
80779;SHT30;70170;47.856;10.956;2023-11-21T00:45:24;4.49;98.00
80779;SHT30;70170;47.856;10.956;2023-11-21T00:47:50;4.53;96.92
80779;SHT30;70170;47.856;10.956;2023-11-21T00:50:15;4.56;96.49
80779;SHT30;70170;47.856;10.956;2023-11-21T00:52:41;4.61;96.46
80779;SHT30;70170;47.856;10.956;2023-11-21T00:55:06;4.73;95.43
80779;SHT30;70170;47.856;10.956;2023-11-21T00:57:33;4.74;95.09
80779;SHT30;70170;47.856;10.956;2023-11-21T00:59:58;4.63;95.43
80779;SHT30;70170;47.856;10.956;2023-11-21T01:02:23;4.54;95.47
80779;SHT30;70170;47.856;10.956;2023-11-21T01:04:50;4.81;94.12
80779;SHT30;70170;47.856;10.956;2023-11-21T01:07:15;4.89;94.05
80779;SHT30;70170;47.856;10.956;2023-11-21T01:09:41;5.22;92.94
80779;SHT30;70170;47.856;10.956;2023-11-21T01:12:06;5.60;91.24
80779;SHT30;70170;47.856;10.956;2023-11-21T01:14:32;5.73;90.82
80779;SHT30;70170;47.856;10.956;2023-11-21T01:16:57;5.83;90.51
80779;SHT30;70170;47.856;10.956;2023-11-21T01:19:22;5.90;89.92
80779;SHT30;70170;47.856;10.956;2023-11-21T01:21:48;5.98;89.72
80779;SHT30;70170;47.856;10.956;2023-11-21T01:24:14;6.01;89.79
80779;SHT30;70170;47.856;10.956;2023-11-21T01:26:39;6.02;89.58
80779;SHT30;70170;47.856;10.956;2023-11-21T01:29:05;6.02;89.73
80779;SHT30;70170;47.856;10.956;2023-11-21T01:31:30;5.97;89.72
80779;SHT30;70170;47.856;10.956;2023-11-21T01:33:56;5.95;90.00
80779;SHT30;70170;47.856;10.956;2023-11-21T01:36:22;5.91;89.92
80779;SHT30;70170;47.856;10.956;2023-11-21T01:38:47;5.92;89.94
80779;SHT30;70170;47.856;10.956;2023-11-21T01:41:15;5.90;89.77
80779;SHT30;70170;47.856;10.956;2023-11-21T01:43:41;5.87;90.27
80779;SHT30;70170;47.856;10.956;2023-11-21T01:46:08;5.83;90.28
80779;SHT30;70170;47.856;10.956;2023-11-21T01:48:34;5.78;90.32
80779;SHT30;70170;47.856;10.956;2023-11-21T01:51:00;5.73;90.68
80779;SHT30;70170;47.856;10.956;2023-11-21T01:53:26;5.58;91.23
80779;SHT30;70170;47.856;10.956;2023-11-21T01:55:51;5.51;91.46
80779;SHT30;70170;47.856;10.956;2023-11-21T01:58:19;5.48;91.82
80779;SHT30;70170;47.856;10.956;2023-11-21T02:00:45;5.37;92.28
80779;SHT30;70170;47.856;10.956;2023-11-21T02:03:11;5.30;92.79
80779;SHT30;70170;47.856;10.956;2023-11-21T02:05:37;5.20;93.24
80779;SHT30;70170;47.856;10.956;2023-11-21T02:08:02;5.19;93.46
80779;SHT30;70170;47.856;10.956;2023-11-21T02:10:30;5.15;93.60
80779;SHT30;70170;47.856;10.956;2023-11-21T02:12:56;5.11;93.86
80779;SHT30;70170;47.856;10.956;2023-11-21T02:15:22;5.09;93.94
80779;SHT30;70170;47.856;10.956;2023-11-21T02:17:49;5.12;94.12
80779;SHT30;70170;47.856;10.956;2023-11-21T02:20:19;5.15;93.75
80779;SHT30;70170;47.856;10.956;2023-11-21T02:22:55;5.22;93.39
80779;SHT30;70170;47.856;10.956;2023-11-21T02:25:24;5.28;93.23
80779;SHT30;70170;47.856;10.956;2023-11-21T02:27:49;5.37;92.66
80779;SHT30;70170;47.856;10.956;2023-11-21T02:30:16;5.47;92.49
80779;SHT30;70170;47.856;10.956;2023-11-21T02:32:41;5.46;92.75
80779;SHT30;70170;47.856;10.956;2023-11-21T02:35:08;5.43;92.92
80779;SHT30;70170;47.856;10.956;2023-11-21T02:37:33;5.40;93.17
80779;SHT30;70170;47.856;10.956;2023-11-21T02:40:00;5.42;93.07
80779;SHT30;70170;47.856;10.956;2023-11-21T02:42:25;5.40;93.17
80779;SHT30;70170;47.856;10.956;2023-11-21T02:44:51;5.47;92.99
80779;SHT30;70170;47.856;10.956;2023-11-21T02:47:16;5.47;93.09
80779;SHT30;70170;47.856;10.956;2023-11-21T02:49:41;5.47;93.29
80779;SHT30;70170;47.856;10.956;2023-11-21T02:52:07;5.47;94.15
80779;SHT30;70170;47.856;10.956;2023-11-21T02:54:32;5.39;93.48
80779;SHT30;70170;47.856;10.956;2023-11-21T02:57:01;5.37;93.54
80779;SHT30;70170;47.856;10.956;2023-11-21T02:59:27;5.30;93.81
80779;SHT30;70170;47.856;10.956;2023-11-21T03:01:52;5.32;93.66
80779;SHT30;70170;47.856;10.956;2023-11-21T03:04:18;5.30;93.68
80779;SHT30;70170;47.856;10.956;2023-11-21T03:06:44;5.29;93.96
80779;SHT30;70170;47.856;10.956;2023-11-21T03:09:10;5.29;94.11
80779;SHT30;70170;47.856;10.956;2023-11-21T03:11:38;5.29;94.27
80779;SHT30;70170;47.856;10.956;2023-11-21T03:14:04;5.26;94.52
80779;SHT30;70170;47.856;10.956;2023-11-21T03:16:31;5.22;94.77
80779;SHT30;70170;47.856;10.956;2023-11-21T03:18:56;5.25;94.92
80779;SHT30;70170;47.856;10.956;2023-11-21T03:21:22;5.25;94.61
80779;SHT30;70170;47.856;10.956;2023-11-21T03:23:47;5.28;94.51
80779;SHT30;70170;47.856;10.956;2023-11-21T03:26:12;5.23;94.67
80779;SHT30;70170;47.856;10.956;2023-11-21T03:28:38;5.20;94.94
80779;SHT30;70170;47.856;10.956;2023-11-21T03:31:03;5.23;94.93
80779;SHT30;70170;47.856;10.956;2023-11-21T03:33:29;5.26;94.83
80779;SHT30;70170;47.856;10.956;2023-11-21T03:35:54;5.36;94.73
80779;SHT30;70170;47.856;10.956;2023-11-21T03:38:20;5.33;94.91
80779;SHT30;70170;47.856;10.956;2023-11-21T03:40:45;5.33;95.00
80779;SHT30;70170;47.856;10.956;2023-11-21T03:43:11;5.36;95.03
80779;SHT30;70170;47.856;10.956;2023-11-21T03:45:36;5.33;95.23
80779;SHT30;70170;47.856;10.956;2023-11-21T03:48:01;5.29;95.63
80779;SHT30;70170;47.856;10.956;2023-11-21T03:50:30;5.23;96.12
80779;SHT30;70170;47.856;10.956;2023-11-21T03:52:55;5.22;96.16
80779;SHT30;70170;47.856;10.956;2023-11-21T03:55:20;5.19;96.36
80779;SHT30;70170;47.856;10.956;2023-11-21T03:57:46;5.18;96.57
80779;SHT30;70170;47.856;10.956;2023-11-21T04:00:11;5.16;96.80
80779;SHT30;70170;47.856;10.956;2023-11-21T04:02:37;5.11;97.13
80779;SHT30;70170;47.856;10.956;2023-11-21T04:05:03;5.08;97.53
80779;SHT30;70170;47.856;10.956;2023-11-21T04:07:30;5.05;97.34
80779;SHT30;70170;47.856;10.956;2023-11-21T04:09:55;5.08;97.33
80779;SHT30;70170;47.856;10.956;2023-11-21T04:12:20;5.11;97.53
80779;SHT30;70170;47.856;10.956;2023-11-21T04:14:46;5.13;97.97
80779;SHT30;70170;47.856;10.956;2023-11-21T04:17:11;5.18;97.62
80779;SHT30;70170;47.856;10.956;2023-11-21T04:19:36;5.19;97.52
80779;SHT30;70170;47.856;10.956;2023-11-21T04:22:02;5.15;97.72
80779;SHT30;70170;47.856;10.956;2023-11-21T04:24:27;5.08;98.12
80779;SHT30;70170;47.856;10.956;2023-11-21T04:26:53;4.99;99.09
80779;SHT30;70170;47.856;10.956;2023-11-21T04:29:18;4.96;99.35
80779;SHT30;70170;47.856;10.956;2023-11-21T04:31:43;4.94;99.99
80779;SHT30;70170;47.856;10.956;2023-11-21T04:34:09;4.89;99.99
80779;SHT30;70170;47.856;10.956;2023-11-21T04:36:34;4.87;99.99
80779;SHT30;70170;47.856;10.956;2023-11-21T04:39:02;4.85;99.99
80779;SHT30;70170;47.856;10.956;2023-11-21T04:41:28;4.84;99.99
80779;SHT30;70170;47.856;10.956;2023-11-21T04:43:53;4.84;99.99
80779;SHT30;70170;47.856;10.956;2023-11-21T04:46:18;4.81;99.99
80779;SHT30;70170;47.856;10.956;2023-11-21T04:48:44;4.84;99.99
80779;SHT30;70170;47.856;10.956;2023-11-21T04:51:09;4.80;99.99
80779;SHT30;70170;47.856;10.956;2023-11-21T04:53:36;4.80;99.99
80779;SHT30;70170;47.856;10.956;2023-11-21T04:56:02;4.80;99.99
80779;SHT30;70170;47.856;10.956;2023-11-21T04:58:28;4.81;99.99
80779;SHT30;70170;47.856;10.956;2023-11-21T05:00:53;4.80;99.99
80779;SHT30;70170;47.856;10.956;2023-11-21T05:03:19;4.75;99.99
80779;SHT30;70170;47.856;10.956;2023-11-21T05:05:44;4.75;99.99
80779;SHT30;70170;47.856;10.956;2023-11-21T05:08:10;4.75;99.99
80779;SHT30;70170;47.856;10.956;2023-11-21T05:10:35;4.75;99.99
80779;SHT30;70170;47.856;10.956;2023-11-21T05:13:03;4.75;99.99
80779;SHT30;70170;47.856;10.956;2023-11-21T05:15:28;4.77;99.99
80779;SHT30;70170;47.856;10.956;2023-11-21T05:17:54;4.81;99.99
80779;SHT30;70170;47.856;10.956;2023-11-21T05:20:20;4.88;99.51
80779;SHT30;70170;47.856;10.956;2023-11-21T05:22:46;4.89;99.42
80779;SHT30;70170;47.856;10.956;2023-11-21T05:25:13;4.95;99.40
80779;SHT30;70170;47.856;10.956;2023-11-21T05:27:39;4.94;99.34
80779;SHT30;70170;47.856;10.956;2023-11-21T05:30:05;4.92;98.89
80779;SHT30;70170;47.856;10.956;2023-11-21T05:32:31;4.95;99.26
80779;SHT30;70170;47.856;10.956;2023-11-21T05:34:57;4.89;99.14
80779;SHT30;70170;47.856;10.956;2023-11-21T05:37:22;4.95;98.18
80779;SHT30;70170;47.856;10.956;2023-11-21T05:39:48;4.95;98.19
80779;SHT30;70170;47.856;10.956;2023-11-21T05:42:14;4.94;98.68
80779;SHT30;70170;47.856;10.956;2023-11-21T05:44:41;4.84;99.07
80779;SHT30;70170;47.856;10.956;2023-11-21T05:47:07;4.85;99.09
80779;SHT30;70170;47.856;10.956;2023-11-21T05:49:32;4.81;99.59
80779;SHT30;70170;47.856;10.956;2023-11-21T05:51:58;4.74;99.81
80779;SHT30;70170;47.856;10.956;2023-11-21T05:54:23;4.71;99.99
80779;SHT30;70170;47.856;10.956;2023-11-21T05:56:49;4.73;99.99
80779;SHT30;70170;47.856;10.956;2023-11-21T05:59:14;4.71;99.99
80779;SHT30;70170;47.856;10.956;2023-11-21T06:01:40;4.70;99.99
80779;SHT30;70170;47.856;10.956;2023-11-21T06:04:05;4.68;99.99
80779;SHT30;70170;47.856;10.956;2023-11-21T06:06:30;4.67;99.99
80779;SHT30;70170;47.856;10.956;2023-11-21T06:08:57;4.65;99.99
80779;SHT30;70170;47.856;10.956;2023-11-21T06:11:22;4.68;99.99
80779;SHT30;70170;47.856;10.956;2023-11-21T06:13:47;4.64;99.99
80779;SHT30;70170;47.856;10.956;2023-11-21T06:16:13;4.65;99.99
80779;SHT30;70170;47.856;10.956;2023-11-21T06:18:41;4.64;99.99
80779;SHT30;70170;47.856;10.956;2023-11-21T06:21:09;4.60;99.99
80779;SHT30;70170;47.856;10.956;2023-11-21T06:23:34;4.60;99.99
80779;SHT30;70170;47.856;10.956;2023-11-21T06:26:00;4.56;99.99
80779;SHT30;70170;47.856;10.956;2023-11-21T06:28:25;4.57;99.99
80779;SHT30;70170;47.856;10.956;2023-11-21T06:30:50;4.52;99.99
80779;SHT30;70170;47.856;10.956;2023-11-21T06:33:16;4.54;99.99
80779;SHT30;70170;47.856;10.956;2023-11-21T06:35:41;4.52;99.99
80779;SHT30;70170;47.856;10.956;2023-11-21T06:38:06;4.46;99.99
80779;SHT30;70170;47.856;10.956;2023-11-21T06:40:32;4.45;99.99
80779;SHT30;70170;47.856;10.956;2023-11-21T06:42:58;4.45;99.99
80779;SHT30;70170;47.856;10.956;2023-11-21T06:45:24;4.45;99.99
80779;SHT30;70170;47.856;10.956;2023-11-21T06:47:49;4.50;99.99
80779;SHT30;70170;47.856;10.956;2023-11-21T06:50:14;4.49;99.99
80779;SHT30;70170;47.856;10.956;2023-11-21T06:52:40;4.54;99.99
80779;SHT30;70170;47.856;10.956;2023-11-21T06:55:06;4.56;99.99
80779;SHT30;70170;47.856;10.956;2023-11-21T06:57:33;4.57;99.99
80779;SHT30;70170;47.856;10.956;2023-11-21T06:59:58;4.63;99.99
80779;SHT30;70170;47.856;10.956;2023-11-21T07:02:24;4.64;99.99
80779;SHT30;70170;47.856;10.956;2023-11-21T07:04:49;4.65;99.99
80779;SHT30;70170;47.856;10.956;2023-11-21T07:07:15;4.70;99.80
80779;SHT30;70170;47.856;10.956;2023-11-21T07:09:40;4.73;99.99
80779;SHT30;70170;47.856;10.956;2023-11-21T07:12:06;4.74;99.83
80779;SHT30;70170;47.856;10.956;2023-11-21T07:14:33;4.78;99.05
80779;SHT30;70170;47.856;10.956;2023-11-21T07:16:59;4.80;99.14
80779;SHT30;70170;47.856;10.956;2023-11-21T07:19:24;4.83;98.89
80779;SHT30;70170;47.856;10.956;2023-11-21T07:21:50;4.85;99.05
80779;SHT30;70170;47.856;10.956;2023-11-21T07:24:18;4.85;98.45
80779;SHT30;70170;47.856;10.956;2023-11-21T07:26:43;4.84;98.53
80779;SHT30;70170;47.856;10.956;2023-11-21T07:29:09;4.85;98.63
80779;SHT30;70170;47.856;10.956;2023-11-21T07:31:34;4.88;97.77
80779;SHT30;70170;47.856;10.956;2023-11-21T07:34:00;4.92;97.76
80779;SHT30;70170;47.856;10.956;2023-11-21T07:36:26;4.92;97.74
80779;SHT30;70170;47.856;10.956;2023-11-21T07:38:51;4.92;97.94
80779;SHT30;70170;47.856;10.956;2023-11-21T07:41:17;4.92;98.17
80779;SHT30;70170;47.856;10.956;2023-11-21T07:43:46;4.95;97.63
80779;SHT30;70170;47.856;10.956;2023-11-21T07:46:12;4.96;98.15
80779;SHT30;70170;47.856;10.956;2023-11-21T07:48:38;4.95;98.32
80779;SHT30;70170;47.856;10.956;2023-11-21T07:51:04;4.96;98.13
80779;SHT30;70170;47.856;10.956;2023-11-21T07:53:30;4.95;98.35
80779;SHT30;70170;47.856;10.956;2023-11-21T07:55:58;4.96;97.90
80779;SHT30;70170;47.856;10.956;2023-11-21T07:58:24;4.95;98.43
80779;SHT30;70170;47.856;10.956;2023-11-21T08:00:50;4.95;98.45
80779;SHT30;70170;47.856;10.956;2023-11-21T08:03:15;4.98;98.81
80779;SHT30;70170;47.856;10.956;2023-11-21T08:05:41;4.96;98.66
80779;SHT30;70170;47.856;10.956;2023-11-21T08:08:06;4.96;98.38
80779;SHT30;70170;47.856;10.956;2023-11-21T08:10:32;4.92;98.75
80779;SHT30;70170;47.856;10.956;2023-11-21T08:12:58;4.94;98.59
80779;SHT30;70170;47.856;10.956;2023-11-21T08:15:23;4.95;98.79
80779;SHT30;70170;47.856;10.956;2023-11-21T08:17:48;4.96;98.52
80779;SHT30;70170;47.856;10.956;2023-11-21T08:20:14;5.05;98.29
80779;SHT30;70170;47.856;10.956;2023-11-21T08:22:43;5.09;98.21
80779;SHT30;70170;47.856;10.956;2023-11-21T08:25:09;5.12;98.30
80779;SHT30;70170;47.856;10.956;2023-11-21T08:27:34;5.15;97.58
80779;SHT30;70170;47.856;10.956;2023-11-21T08:30:00;5.20;98.46
80779;SHT30;70170;47.856;10.956;2023-11-21T08:32:25;5.28;98.00
80779;SHT30;70170;47.856;10.956;2023-11-21T08:34:51;5.32;98.14
80779;SHT30;70170;47.856;10.956;2023-11-21T08:37:16;5.36;97.58
80779;SHT30;70170;47.856;10.956;2023-11-21T08:39:44;5.42;97.64
80779;SHT30;70170;47.856;10.956;2023-11-21T08:42:09;5.47;97.21
80779;SHT30;70170;47.856;10.956;2023-11-21T08:44:34;5.50;97.10
80779;SHT30;70170;47.856;10.956;2023-11-21T08:47:00;5.58;97.16
80779;SHT30;70170;47.856;10.956;2023-11-21T08:49:25;5.61;97.43
80779;SHT30;70170;47.856;10.956;2023-11-21T08:51:52;5.67;97.46
80779;SHT30;70170;47.856;10.956;2023-11-21T08:54:20;5.73;96.98
80779;SHT30;70170;47.856;10.956;2023-11-21T08:56:46;5.68;96.69
80779;SHT30;70170;47.856;10.956;2023-11-21T08:59:11;5.73;97.60
80779;SHT30;70170;47.856;10.956;2023-11-21T09:01:40;5.71;97.48
80779;SHT30;70170;47.856;10.956;2023-11-21T09:04:06;5.73;97.29
80779;SHT30;70170;47.856;10.956;2023-11-21T09:06:31;5.67;97.08
80779;SHT30;70170;47.856;10.956;2023-11-21T09:08:57;5.66;97.39
80779;SHT30;70170;47.856;10.956;2023-11-21T09:11:22;5.67;97.18
80779;SHT30;70170;47.856;10.956;2023-11-21T09:13:48;5.71;96.86
80779;SHT30;70170;47.856;10.956;2023-11-21T09:16:14;5.79;96.90
80779;SHT30;70170;47.856;10.956;2023-11-21T09:18:41;5.84;96.53
80779;SHT30;70170;47.856;10.956;2023-11-21T09:21:06;5.94;96.77
80779;SHT30;70170;47.856;10.956;2023-11-21T09:23:31;5.94;96.27
80779;SHT30;70170;47.856;10.956;2023-11-21T09:25:57;6.03;95.75
80779;SHT30;70170;47.856;10.956;2023-11-21T09:28:24;6.13;96.10
80779;SHT30;70170;47.856;10.956;2023-11-21T09:30:50;6.22;95.70
80779;SHT30;70170;47.856;10.956;2023-11-21T09:33:15;6.34;95.40
80779;SHT30;70170;47.856;10.956;2023-11-21T09:35:41;6.40;95.39
80779;SHT30;70170;47.856;10.956;2023-11-21T09:38:09;6.46;94.54
80779;SHT30;70170;47.856;10.956;2023-11-21T09:40:36;6.61;94.89
80779;SHT30;70170;47.856;10.956;2023-11-21T09:43:06;6.67;94.18
80779;SHT30;70170;47.856;10.956;2023-11-21T09:45:35;6.60;94.30
80779;SHT30;70170;47.856;10.956;2023-11-21T09:48:01;6.60;94.52
80779;SHT30;70170;47.856;10.956;2023-11-21T09:50:27;6.63;94.27
80779;SHT30;70170;47.856;10.956;2023-11-21T09:53:13;6.67;94.48
80779;SHT30;70170;47.856;10.956;2023-11-21T09:55:46;6.58;93.69
80779;SHT30;70170;47.856;10.956;2023-11-21T09:58:14;6.50;93.78
80779;SHT30;70170;47.856;10.956;2023-11-21T10:00:44;6.49;93.74
80779;SHT30;70170;47.856;10.956;2023-11-21T10:03:10;6.49;94.01
80779;SHT30;70170;47.856;10.956;2023-11-21T10:05:36;6.49;94.62
80779;SHT30;70170;47.856;10.956;2023-11-21T10:08:04;6.46;94.57
80779;SHT30;70170;47.856;10.956;2023-11-21T10:10:32;6.49;94.37
80779;SHT30;70170;47.856;10.956;2023-11-21T10:13:01;6.44;94.29
80779;SHT30;70170;47.856;10.956;2023-11-21T10:15:28;6.47;94.90
80779;SHT30;70170;47.856;10.956;2023-11-21T10:17:55;6.49;94.34
80779;SHT30;70170;47.856;10.956;2023-11-21T10:20:21;6.49;94.55
80779;SHT30;70170;47.856;10.956;2023-11-21T10:22:47;6.51;94.20
80779;SHT30;70170;47.856;10.956;2023-11-21T10:25:13;6.49;94.44
80779;SHT30;70170;47.856;10.956;2023-11-21T10:27:42;6.54;93.96
80779;SHT30;70170;47.856;10.956;2023-11-21T10:30:09;6.63;94.31
80779;SHT30;70170;47.856;10.956;2023-11-21T10:32:40;6.78;93.36
80779;SHT30;70170;47.856;10.956;2023-11-21T10:35:07;6.98;93.16
80779;SHT30;70170;47.856;10.956;2023-11-21T10:37:36;7.13;92.91
80779;SHT30;70170;47.856;10.956;2023-11-21T10:40:07;7.18;91.69
80779;SHT30;70170;47.856;10.956;2023-11-21T10:42:37;7.23;91.94
80779;SHT30;70170;47.856;10.956;2023-11-21T10:45:04;7.32;91.18
80779;SHT30;70170;47.856;10.956;2023-11-21T10:47:31;7.40;90.23
80779;SHT30;70170;47.856;10.956;2023-11-21T10:49:57;7.57;90.35
80779;SHT30;70170;47.856;10.956;2023-11-21T10:52:26;7.71;89.40
80779;SHT30;70170;47.856;10.956;2023-11-21T10:54:52;7.91;89.34
80779;SHT30;70170;47.856;10.956;2023-11-21T10:57:18;7.85;88.18
80779;SHT30;70170;47.856;10.956;2023-11-21T10:59:46;7.85;88.41
80779;SHT30;70170;47.856;10.956;2023-11-21T11:02:33;7.84;88.81
80779;SHT30;70170;47.856;10.956;2023-11-21T11:04:59;7.94;89.21
80779;SHT30;70170;47.856;10.956;2023-11-21T11:07:27;8.01;89.38
80779;SHT30;70170;47.856;10.956;2023-11-21T11:09:55;7.92;89.62
80779;SHT30;70170;47.856;10.956;2023-11-21T11:12:21;7.79;89.27
80779;SHT30;70170;47.856;10.956;2023-11-21T11:14:48;7.89;89.77
80779;SHT30;70170;47.856;10.956;2023-11-21T11:17:14;7.96;89.13
80779;SHT30;70170;47.856;10.956;2023-11-21T11:19:39;7.82;88.73
80779;SHT30;70170;47.856;10.956;2023-11-21T11:25:25;7.94;89.25
80779;SHT30;70170;47.856;10.956;2023-11-21T11:28:18;8.05;88.68
80779;SHT30;70170;47.856;10.956;2023-11-21T11:30:56;8.23;88.56
80779;SHT30;70170;47.856;10.956;2023-11-21T11:33:50;8.49;88.13
80779;SHT30;70170;47.856;10.956;2023-11-21T11:36:33;8.59;87.21
80779;SHT30;70170;47.856;10.956;2023-11-21T11:38:59;8.56;85.98
80779;SHT30;70170;47.856;10.956;2023-11-21T11:41:30;8.54;85.96
80779;SHT30;70170;47.856;10.956;2023-11-21T11:43:57;8.60;86.10
80779;SHT30;70170;47.856;10.956;2023-11-21T11:46:42;8.64;86.11
80779;SHT30;70170;47.856;10.956;2023-11-21T11:49:10;8.72;86.40
80779;SHT30;70170;47.856;10.956;2023-11-21T11:51:36;8.64;85.14
80779;SHT30;70170;47.856;10.956;2023-11-21T11:54:02;8.47;85.79
80779;SHT30;70170;47.856;10.956;2023-11-21T11:56:31;8.41;87.27
80779;SHT30;70170;47.856;10.956;2023-11-21T11:59:01;8.29;87.70
80779;SHT30;70170;47.856;10.956;2023-11-21T12:01:33;7.82;87.66
80779;SHT30;70170;47.856;10.956;2023-11-21T12:06:36;7.61;88.08
80779;SHT30;70170;47.856;10.956;2023-11-21T12:09:02;7.66;88.11
80779;SHT30;70170;47.856;10.956;2023-11-21T12:11:31;7.78;89.02
80779;SHT30;70170;47.856;10.956;2023-11-21T12:13:56;7.84;88.87
80779;SHT30;70170;47.856;10.956;2023-11-21T12:16:25;7.89;89.07
80779;SHT30;70170;47.856;10.956;2023-11-21T12:18:52;7.77;89.52
80779;SHT30;70170;47.856;10.956;2023-11-21T12:21:19;7.60;89.12
80779;SHT30;70170;47.856;10.956;2023-11-21T12:23:45;7.61;89.21
80779;SHT30;70170;47.856;10.956;2023-11-21T12:26:13;7.63;89.15
80779;SHT30;70170;47.856;10.956;2023-11-21T12:28:38;7.54;89.17
80779;SHT30;70170;47.856;10.956;2023-11-21T12:31:04;7.50;89.40
80779;SHT30;70170;47.856;10.956;2023-11-21T12:33:32;7.50;89.25
80779;SHT30;70170;47.856;10.956;2023-11-21T12:35:58;7.63;89.82
80779;SHT30;70170;47.856;10.956;2023-11-21T12:38:23;7.70;89.34
80779;SHT30;70170;47.856;10.956;2023-11-21T12:40:50;7.57;88.31
80779;SHT30;70170;47.856;10.956;2023-11-21T12:43:16;7.67;89.07
80779;SHT30;70170;47.856;10.956;2023-11-21T12:45:43;7.68;89.17
80779;SHT30;70170;47.856;10.956;2023-11-21T12:48:09;7.61;89.07
80779;SHT30;70170;47.856;10.956;2023-11-21T12:50:37;7.61;88.80
80779;SHT30;70170;47.856;10.956;2023-11-21T12:53:12;7.78;88.70
80779;SHT30;70170;47.856;10.956;2023-11-21T12:55:39;7.92;88.78
80779;SHT30;70170;47.856;10.956;2023-11-21T12:58:09;8.05;88.94
80779;SHT30;70170;47.856;10.956;2023-11-21T13:00:36;7.91;88.81
80779;SHT30;70170;47.856;10.956;2023-11-21T13:03:04;7.84;89.27
80779;SHT30;70170;47.856;10.956;2023-11-21T13:05:32;7.81;89.61
80779;SHT30;70170;47.856;10.956;2023-11-21T13:08:00;7.84;89.69
80779;SHT30;70170;47.856;10.956;2023-11-21T13:10:29;7.81;89.09
80779;SHT30;70170;47.856;10.956;2023-11-21T13:12:57;7.81;88.65
80779;SHT30;70170;47.856;10.956;2023-11-21T13:15:24;7.74;85.49
80779;SHT30;70170;47.856;10.956;2023-11-21T13:17:50;7.89;85.75
80779;SHT30;70170;47.856;10.956;2023-11-21T13:20:16;7.99;86.70
80779;SHT30;70170;47.856;10.956;2023-11-21T13:22:52;7.81;83.85
80779;SHT30;70170;47.856;10.956;2023-11-21T13:25:20;7.73;86.00
80779;SHT30;70170;47.856;10.956;2023-11-21T13:27:46;7.56;85.84
80779;SHT30;70170;47.856;10.956;2023-11-21T13:30:15;7.56;86.53
80779;SHT30;70170;47.856;10.956;2023-11-21T13:32:44;7.70;86.03
80779;SHT30;70170;47.856;10.956;2023-11-21T13:35:12;7.54;87.48
80779;SHT30;70170;47.856;10.956;2023-11-21T13:37:47;7.71;89.34
80779;SHT30;70170;47.856;10.956;2023-11-21T13:40:15;7.66;90.61
80779;SHT30;70170;47.856;10.956;2023-11-21T13:42:45;8.03;89.01
80779;SHT30;70170;47.856;10.956;2023-11-21T13:45:11;7.75;91.25
80779;SHT30;70170;47.856;10.956;2023-11-21T13:47:38;7.53;92.07
80779;SHT30;70170;47.856;10.956;2023-11-21T13:50:04;7.33;91.89
80779;SHT30;70170;47.856;10.956;2023-11-21T13:52:32;7.23;92.31
80779;SHT30;70170;47.856;10.956;2023-11-21T13:54:58;7.24;92.66
80779;SHT30;70170;47.856;10.956;2023-11-21T13:57:26;7.24;93.35
80779;SHT30;70170;47.856;10.956;2023-11-21T13:59:52;7.23;93.30
80779;SHT30;70170;47.856;10.956;2023-11-21T14:02:18;7.05;92.34
80779;SHT30;70170;47.856;10.956;2023-11-21T14:04:44;6.81;91.76
80779;SHT30;70170;47.856;10.956;2023-11-21T14:07:25;6.78;91.85
80779;SHT30;70170;47.856;10.956;2023-11-21T14:10:03;6.53;91.18
80779;SHT30;70170;47.856;10.956;2023-11-21T14:12:30;6.33;91.64
80779;SHT30;70170;47.856;10.956;2023-11-21T14:14:59;6.20;91.73
80779;SHT30;70170;47.856;10.956;2023-11-21T14:17:25;6.13;91.90
80779;SHT30;70170;47.856;10.956;2023-11-21T14:19:50;6.09;92.54
80779;SHT30;70170;47.856;10.956;2023-11-21T14:22:15;6.05;92.51
80779;SHT30;70170;47.856;10.956;2023-11-21T14:24:42;5.98;92.24
80779;SHT30;70170;47.856;10.956;2023-11-21T14:27:11;6.01;93.06
80779;SHT30;70170;47.856;10.956;2023-11-21T14:29:37;6.03;92.90
80779;SHT30;70170;47.856;10.956;2023-11-21T14:32:05;6.11;92.70
80779;SHT30;70170;47.856;10.956;2023-11-21T14:34:30;6.08;92.06
80779;SHT30;70170;47.856;10.956;2023-11-21T14:36:56;6.09;92.27
80779;SHT30;70170;47.856;10.956;2023-11-21T14:39:22;6.12;92.73
80779;SHT30;70170;47.856;10.956;2023-11-21T14:41:54;6.16;94.17
80779;SHT30;70170;47.856;10.956;2023-11-21T14:44:23;6.15;93.28
80779;SHT30;70170;47.856;10.956;2023-11-21T14:46:53;6.12;92.98
80779;SHT30;70170;47.856;10.956;2023-11-21T14:49:20;6.15;93.30
80779;SHT30;70170;47.856;10.956;2023-11-21T14:51:47;6.20;93.97
80779;SHT30;70170;47.856;10.956;2023-11-21T14:54:33;6.22;94.95
80779;SHT30;70170;47.856;10.956;2023-11-21T14:57:24;6.20;94.46
80779;SHT30;70170;47.856;10.956;2023-11-21T14:59:52;6.16;95.27
80779;SHT30;70170;47.856;10.956;2023-11-21T15:02:20;6.13;94.64
80779;SHT30;70170;47.856;10.956;2023-11-21T15:04:48;6.25;94.62
80779;SHT30;70170;47.856;10.956;2023-11-21T15:07:16;6.18;95.23
80779;SHT30;70170;47.856;10.956;2023-11-21T15:09:41;6.12;96.93
80779;SHT30;70170;47.856;10.956;2023-11-21T15:12:08;5.97;96.07
80779;SHT30;70170;47.856;10.956;2023-11-21T15:14:50;5.78;95.42
80779;SHT30;70170;47.856;10.956;2023-11-21T15:17:20;5.63;95.23
80779;SHT30;70170;47.856;10.956;2023-11-21T15:19:51;5.53;95.31
80779;SHT30;70170;47.856;10.956;2023-11-21T15:22:16;5.48;95.49
80779;SHT30;70170;47.856;10.956;2023-11-21T15:24:45;5.39;95.82
80779;SHT30;70170;47.856;10.956;2023-11-21T15:27:15;5.28;96.04
80779;SHT30;70170;47.856;10.956;2023-11-21T15:29:41;5.22;96.32
80779;SHT30;70170;47.856;10.956;2023-11-21T15:32:08;5.16;96.63
80779;SHT30;70170;47.856;10.956;2023-11-21T15:34:45;5.08;96.81